Time;durP1;ratioP1;P1;durP2;ratioP2;P2;SDS_P1;SDS_P2;PMS_P1;PMS_P2;Temp;Humidity;BMP_temperature;BMP_pressure;BME280_temperature;BME280_humidity;BME280_pressure;Samples;Min_cycle;Max_cycle;Signal;HPM_P1;HPM_P2
2022/01/14 00:02:35;;;;;;;10.68;6.60;;;22.20;40.90;;;;;;6254525;27;80339;-70
2022/01/14 00:05:36;;;;;;;11.32;6.65;;;22.20;40.90;;;;;;6253228;27;80491;-69
2022/01/14 00:08:36;;;;;;;11.02;6.47;;;22.20;40.90;;;;;;6241873;28;80412;-69
2022/01/14 00:11:38;;;;;;;11.00;6.68;;;22.20;41.00;;;;;;6246877;28;80334;-70
2022/01/14 00:14:41;;;;;;;10.13;6.53;;;22.20;40.90;;;;;;6258416;27;81627;-69
2022/01/14 00:17:42;;;;;;;11.82;6.50;;;22.20;40.90;;;;;;6256637;28;83727;-69
2022/01/14 00:20:42;;;;;;;10.50;6.45;;;22.20;41.50;;;;;;6258983;27;81019;-69
2022/01/14 00:23:45;;;;;;;9.63;6.10;;;22.20;40.80;;;;;;6259162;27;80124;-69
2022/01/14 00:33:25;;;;;;;11.13;6.22;;;22.20;40.60;;;;;;6256449;27;83181;-70
2022/01/14 00:36:25;;;;;;;11.35;6.50;;;22.20;40.60;;;;;;6258317;27;80602;-70
2022/01/14 00:39:25;;;;;;;9.02;6.35;;;22.20;40.40;;;;;;6264738;27;80194;-72
2022/01/14 00:42:26;;;;;;;10.13;6.43;;;22.20;40.30;;;;;;6256447;28;80513;-70
2022/01/14 00:45:27;;;;;;;11.43;6.50;;;22.20;40.20;;;;;;6240750;28;81597;-70
2022/01/14 00:48:27;;;;;;;11.95;6.88;;;22.20;40.30;;;;;;6256216;27;80500;-70
2022/01/14 00:51:28;;;;;;;11.07;6.50;;;22.20;40.20;;;;;;6256776;27;80465;-70
2022/01/14 00:54:28;;;;;;;10.30;6.30;;;22.20;40.00;;;;;;6256763;27;80248;-70
2022/01/14 00:59:14;;;;;;;12.65;6.57;;;22.20;40.10;;;;;;6255744;27;80561;-70
2022/01/14 01:00:49;;;;;;;9.25;5.95;;;22.20;40.00;;;;;;6258090;27;80657;-70
2022/01/14 01:03:49;;;;;;;10.38;6.30;;;22.20;39.80;;;;;;6256745;27;80391;-70
2022/01/14 01:06:50;;;;;;;11.52;6.88;;;22.20;39.90;;;;;;6258983;27;80558;-70
2022/01/14 01:09:51;;;;;;;10.35;6.28;;;22.20;39.90;;;;;;6259936;27;82712;-70
2022/01/14 01:13:01;;;;;;;10.20;6.15;;;22.20;39.80;;;;;;6257558;27;80560;-70
2022/01/14 01:16:01;;;;;;;13.20;6.93;;;22.10;40.00;;;;;;6250663;27;84811;-70
2022/01/14 01:19:02;;;;;;;12.85;7.50;;;22.20;40.00;;;;;;6258744;27;80236;-70
2022/01/14 01:22:02;;;;;;;11.18;6.72;;;22.20;39.90;;;;;;6258277;27;81932;-70
2022/01/14 01:25:17;;;;;;;11.30;6.25;;;22.10;39.90;;;;;;6243989;27;82742;-70
2022/01/14 01:28:18;;;;;;;10.30;6.47;;;22.20;40.10;;;;;;6255012;27;80775;-70
2022/01/14 01:31:40;;;;;;;10.40;6.63;;;22.20;40.10;;;;;;6256799;27;80500;-70
2022/01/14 01:34:39;;;;;;;10.98;6.22;;;22.20;39.90;;;;;;6256894;27;80264;-70
2022/01/14 01:37:40;;;;;;;10.40;6.68;;;22.10;39.90;;;;;;6257329;27;81708;-69
2022/01/14 01:40:40;;;;;;;11.40;6.28;;;22.10;39.80;;;;;;6256836;27;81486;-69
2022/01/14 01:43:43;;;;;;;8.60;5.75;;;22.10;39.90;;;;;;6256999;27;83201;-70
2022/01/14 01:46:46;;;;;;;9.15;6.07;;;22.10;40.10;;;;;;6255388;27;80467;-70
2022/01/14 01:49:46;;;;;;;10.02;6.68;;;22.10;39.90;;;;;;6255079;27;81872;-70
2022/01/14 01:52:47;;;;;;;10.02;5.95;;;22.10;39.90;;;;;;6255655;27;81643;-70
2022/01/14 01:55:47;;;;;;;10.57;6.35;;;22.10;39.80;;;;;;6250914;27;80537;-70
2022/01/14 01:58:48;;;;;;;10.88;6.55;;;22.10;39.80;;;;;;6264294;27;81931;-70
2022/01/14 02:01:49;;;;;;;9.55;5.88;;;22.10;39.70;;;;;;6256147;27;83000;-70
2022/01/14 02:04:49;;;;;;;10.57;6.72;;;22.10;39.70;;;;;;6258537;27;81549;-69
2022/01/14 02:07:50;;;;;;;11.43;7.07;;;22.10;39.70;;;;;;6260933;27;80551;-69
2022/01/14 02:10:50;;;;;;;11.77;6.43;;;22.10;39.50;;;;;;6262442;27;81194;-69
2022/01/14 02:13:53;;;;;;;12.50;7.40;;;22.10;39.40;;;;;;6267096;27;80676;-69
2022/01/14 02:23:22;;;;;;;11.77;7.43;;;22.10;39.30;;;;;;6260767;27;82106;-69
2022/01/14 02:26:22;;;;;;;9.82;6.13;;;22.10;39.10;;;;;;6260698;27;80891;-69
2022/01/14 02:29:23;;;;;;;10.82;6.80;;;22.10;39.10;;;;;;6260506;27;81460;-69
2022/01/14 02:32:23;;;;;;;10.43;6.85;;;22.10;39.00;;;;;;6258541;27;81647;-70
2022/01/14 02:35:24;;;;;;;11.98;7.35;;;22.10;39.10;;;;;;6259433;27;83889;-69
2022/01/14 02:38:24;;;;;;;12.55;7.40;;;22.10;39.00;;;;;;6246440;27;80470;-70
2022/01/14 02:41:25;;;;;;;12.52;7.30;;;22.10;39.10;;;;;;6259714;27;80184;-70
2022/01/14 02:44:28;;;;;;;13.50;6.88;;;22.10;39.20;;;;;;6256571;27;80387;-70
2022/01/14 02:47:28;;;;;;;13.30;6.68;;;22.10;39.20;;;;;;6253581;28;81725;-69
2022/01/14 02:50:37;;;;;;;12.55;7.07;;;22.10;39.20;;;;;;6259152;27;81111;-69
2022/01/14 02:56:38;;;;;;;15.18;7.50;;;22.10;39.20;;;;;;6256912;27;80549;-71
2022/01/14 02:59:39;;;;;;;12.07;7.38;;;22.10;39.20;;;;;;6259730;27;80322;-70
2022/01/14 03:02:39;;;;;;;9.82;7.00;;;22.10;39.20;;;;;;6271702;27;82542;-70
2022/01/14 03:05:40;;;;;;;9.70;6.43;;;22.10;39.30;;;;;;6261304;27;80527;-70
2022/01/14 03:08:40;;;;;;;11.43;6.47;;;22.00;39.30;;;;;;6260887;27;80563;-69
2022/01/14 03:11:41;;;;;;;10.48;6.63;;;22.10;39.40;;;;;;6255880;27;80807;-69
2022/01/14 03:14:41;;;;;;;9.13;6.00;;;22.10;39.30;;;;;;6258373;27;80237;-69
2022/01/14 03:17:42;;;;;;;11.43;7.05;;;22.10;39.10;;;;;;6257365;27;82003;-69
2022/01/14 03:20:52;;;;;;;10.68;6.55;;;22.10;38.70;;;;;;6225626;28;81821;-69
2022/01/14 03:24:03;;;;;;;10.93;7.00;;;22.10;38.60;;;;;;6260025;27;81563;-69
2022/01/14 03:27:03;;;;;;;13.80;6.80;;;22.10;38.50;;;;;;6259462;27;81299;-68
2022/01/14 03:30:04;;;;;;;10.02;6.57;;;22.20;38.50;;;;;;6259972;27;80663;-68
2022/01/14 03:33:04;;;;;;;10.15;6.75;;;22.20;38.50;;;;;;6265125;27;80776;-69
2022/01/14 03:36:05;;;;;;;12.90;7.22;;;22.20;38.50;;;;;;6262695;27;80893;-69
2022/01/14 03:39:05;;;;;;;11.93;6.90;;;22.30;38.50;;;;;;6260674;27;81407;-69
2022/01/14 03:42:06;;;;;;;11.38;6.70;;;22.30;38.30;;;;;;6256823;27;80538;-70
2022/01/14 03:45:07;;;;;;;11.52;6.88;;;22.40;38.20;;;;;;6258479;27;80323;-69
2022/01/14 03:48:07;;;;;;;10.90;7.03;;;22.40;38.10;;;;;;6256685;27;81317;-70
2022/01/14 03:51:08;;;;;;;11.05;7.25;;;22.40;38.10;;;;;;6257086;27;81004;-70
2022/01/14 03:54:08;;;;;;;10.85;7.35;;;22.40;38.10;;;;;;6246800;28;81845;-68
2022/01/14 03:57:09;;;;;;;11.15;7.15;;;22.50;38.00;;;;;;6243608;28;80497;-68
2022/01/14 04:00:09;;;;;;;11.18;6.60;;;22.50;37.90;;;;;;6258683;27;80762;-68
2022/01/14 04:03:17;;;;;;;11.20;6.70;;;22.50;37.90;;;;;;6255862;27;80680;-68
2022/01/14 04:06:18;;;;;;;10.57;6.75;;;22.60;37.90;;;;;;6258404;27;81270;-68
2022/01/14 04:09:18;;;;;;;9.52;6.68;;;22.60;37.80;;;;;;6241875;27;81559;-69
2022/01/14 04:12:31;;;;;;;10.63;6.75;;;22.60;37.70;;;;;;6258083;27;80565;-69
2022/01/14 04:15:40;;;;;;;10.32;6.78;;;22.60;37.80;;;;;;6258889;28;80602;-69
2022/01/14 04:18:41;;;;;;;9.90;5.93;;;22.60;37.70;;;;;;6255674;28;82322;-68
2022/01/14 04:21:41;;;;;;;10.90;6.80;;;22.60;37.50;;;;;;6268307;27;80411;-69
2022/01/14 04:24:42;;;;;;;10.95;6.65;;;22.60;37.50;;;;;;6259127;27;80424;-68
2022/01/14 04:27:42;;;;;;;12.80;7.20;;;22.60;37.50;;;;;;6256761;28;82167;-68
2022/01/14 04:30:43;;;;;;;10.82;7.00;;;22.60;37.40;;;;;;6259215;27;80617;-68
2022/01/14 04:33:43;;;;;;;12.05;6.85;;;22.70;37.40;;;;;;6258872;27;80560;-69
2022/01/14 04:36:44;;;;;;;10.15;6.95;;;22.70;37.50;;;;;;6258432;27;80899;-70
2022/01/14 04:39:44;;;;;;;9.55;6.20;;;22.70;37.40;;;;;;6257783;28;81979;-69
2022/01/14 04:42:45;;;;;;;9.20;6.35;;;22.70;37.30;;;;;;6257552;27;80561;-69
2022/01/14 04:48:58;;;;;;;11.88;7.47;;;22.70;37.30;;;;;;6258781;27;85454;-68
2022/01/14 04:51:59;;;;;;;10.07;6.25;;;22.70;37.30;;;;;;6258903;27;80603;-68
2022/01/14 04:54:59;;;;;;;12.55;6.95;;;22.70;37.20;;;;;;6257999;27;83373;-68
2022/01/14 04:58:00;;;;;;;10.10;6.82;;;22.70;37.10;;;;;;6258930;27;80588;-68
2022/01/14 05:01:00;;;;;;;9.00;6.07;;;22.70;37.20;;;;;;6258420;27;80523;-68
2022/01/14 05:04:01;;;;;;;7.97;5.95;;;22.70;37.20;;;;;;6253153;27;80452;-68
2022/01/14 05:07:03;;;;;;;10.95;7.07;;;22.70;37.20;;;;;;6256644;27;80203;-69
2022/01/14 05:13:04;;;;;;;12.18;6.53;;;22.70;37.20;;;;;;6251995;27;80889;-64
2022/01/14 05:16:04;;;;;;;10.93;7.00;;;22.70;37.30;;;;;;6257326;27;81057;-69
2022/01/14 05:19:05;;;;;;;10.32;7.35;;;22.70;37.20;;;;;;6253863;27;80217;-67
2022/01/14 05:22:05;;;;;;;11.32;7.10;;;22.70;36.90;;;;;;6256262;27;80977;-66
2022/01/14 05:25:06;;;;;;;9.55;6.68;;;22.70;37.40;;;;;;6261792;27;80226;-68
2022/01/14 05:28:06;;;;;;;12.02;6.97;;;22.80;38.40;;;;;;6253966;27;81351;-73
2022/01/14 05:31:07;;;;;;;9.55;6.25;;;22.80;38.50;;;;;;6246104;27;80692;-63
2022/01/14 05:34:08;;;;;;;15.02;7.43;;;22.80;38.70;;;;;;6243331;27;83905;-64
2022/01/14 05:37:08;;;;;;;9.52;6.85;;;22.80;38.40;;;;;;6255610;27;80765;-73
2022/01/14 05:40:09;;;;;;;8.90;5.93;;;22.80;38.30;;;;;;6255872;27;80766;-73
2022/01/14 05:43:09;;;;;;;10.75;7.00;;;22.80;38.40;;;;;;6261335;27;81161;-71
2022/01/14 05:46:10;;;;;;;74.68;39.10;;;22.80;39.10;;;;;;6259468;27;81652;-73
2022/01/14 05:49:10;;;;;;;196.90;95.85;;;22.90;39.90;;;;;;6259276;27;82992;-73
2022/01/14 05:52:11;;;;;;;284.38;134.65;;;22.90;40.60;;;;;;6259434;27;83737;-66
2022/01/14 05:55:11;;;;;;;354.63;172.07;;;22.90;41.10;;;;;;6243436;27;85314;-72
2022/01/14 05:58:12;;;;;;;258.33;125.10;;;23.00;41.20;;;;;;6249344;27;86395;-72
2022/01/14 06:01:12;;;;;;;226.43;107.72;;;23.00;41.50;;;;;;6254840;27;85660;-66
2022/01/14 06:04:13;;;;;;;190.57;95.18;;;23.00;41.20;;;;;;6253756;27;85435;-66
2022/01/14 06:07:13;;;;;;;178.73;87.60;;;23.00;41.00;;;;;;6253740;27;86747;-75
2022/01/14 06:10:14;;;;;;;174.75;83.55;;;23.00;40.50;;;;;;6257957;27;83846;-69
2022/01/14 06:13:14;;;;;;;149.48;70.35;;;23.00;40.30;;;;;;6254465;27;85181;-68
2022/01/14 06:16:15;;;;;;;137.35;66.55;;;23.00;40.40;;;;;;6243077;27;85805;-67
2022/01/14 06:19:15;;;;;;;118.35;57.75;;;23.00;40.00;;;;;;6258656;27;83606;-68
2022/01/14 06:22:16;;;;;;;116.68;57.03;;;22.90;40.00;;;;;;6240712;27;83202;-70
2022/01/14 06:25:16;;;;;;;110.60;53.40;;;22.90;40.30;;;;;;6243327;27;83109;-67
2022/01/14 06:28:17;;;;;;;101.45;48.47;;;22.90;40.70;;;;;;6256665;27;84300;-68
2022/01/14 06:31:18;;;;;;;96.25;47.00;;;22.90;40.10;;;;;;6253011;27;83199;-70
2022/01/14 06:34:18;;;;;;;95.22;45.38;;;22.90;40.60;;;;;;6255713;27;83223;-73
2022/01/14 06:37:19;;;;;;;84.93;42.75;;;22.80;40.40;;;;;;6257647;27;86061;-69
2022/01/14 06:40:19;;;;;;;80.07;41.13;;;22.90;40.50;;;;;;6257328;27;83619;-70
2022/01/14 06:43:20;;;;;;;79.90;39.97;;;22.80;40.80;;;;;;6254819;27;83218;-70
2022/01/14 06:46:20;;;;;;;79.82;38.13;;;22.80;40.90;;;;;;6254869;27;83514;-70
2022/01/14 06:49:21;;;;;;;74.18;35.35;;;22.70;41.10;;;;;;6256832;27;83020;-70
2022/01/14 06:52:21;;;;;;;69.80;34.65;;;22.70;40.70;;;;;;6253205;27;82830;-71
2022/01/14 06:55:22;;;;;;;70.32;32.22;;;22.70;40.40;;;;;;6260179;27;84088;-72
2022/01/14 06:58:22;;;;;;;58.80;30.17;;;22.70;40.70;;;;;;6257775;27;83452;-71
2022/01/14 07:01:23;;;;;;;63.33;31.23;;;22.70;40.00;;;;;;6256165;27;84224;-70
2022/01/14 07:04:23;;;;;;;61.38;30.13;;;22.60;39.70;;;;;;6239106;27;83118;-69
2022/01/14 07:07:24;;;;;;;53.42;27.08;;;22.70;39.50;;;;;;6253962;28;88746;-69
2022/01/14 07:10:24;;;;;;;47.08;24.65;;;22.60;39.50;;;;;;6263340;27;83047;-70
2022/01/14 07:13:25;;;;;;;36.97;20.30;;;22.60;40.00;;;;;;6244543;27;85144;-72
2022/01/14 07:16:25;;;;;;;34.15;18.90;;;22.30;38.40;;;;;;6255603;27;83132;-73
2022/01/14 07:19:27;;;;;;;31.52;17.10;;;22.10;38.00;;;;;;6257818;27;84420;-72
2022/01/14 07:22:27;;;;;;;31.08;17.30;;;22.00;37.80;;;;;;6257643;27;83119;-70
2022/01/14 07:25:28;;;;;;;28.00;15.13;;;21.80;36.90;;;;;;6260757;27;83249;-73
2022/01/14 07:28:28;;;;;;;26.88;15.38;;;21.60;37.10;;;;;;6257634;27;83564;-74
2022/01/14 07:31:29;;;;;;;25.85;15.43;;;21.50;37.00;;;;;;6257029;27;83222;-74
2022/01/14 07:34:29;;;;;;;26.52;16.48;;;21.20;36.80;;;;;;6255986;27;83416;-77
2022/01/14 07:37:29;;;;;;;26.33;15.93;;;21.20;36.40;;;;;;6248383;27;83354;-78
2022/01/14 07:40:30;;;;;;;25.92;15.35;;;21.00;36.40;;;;;;6253472;27;83947;-75
2022/01/14 07:43:31;;;;;;;25.52;14.90;;;21.00;36.40;;;;;;6242992;27;84139;-78
2022/01/14 07:46:31;;;;;;;23.75;14.60;;;21.00;36.70;;;;;;6256516;27;83266;-78
2022/01/14 07:49:32;;;;;;;24.25;15.00;;;20.90;36.60;;;;;;6255394;27;83035;-74
2022/01/14 07:52:32;;;;;;;26.02;15.63;;;20.70;36.30;;;;;;6246666;27;83716;-79
2022/01/14 07:55:33;;;;;;;24.95;15.15;;;20.60;36.50;;;;;;6253292;27;83367;-74
2022/01/14 07:58:33;;;;;;;21.90;14.25;;;20.50;36.60;;;;;;6249226;27;83887;-76
2022/01/14 08:01:34;;;;;;;24.67;13.85;;;20.60;36.70;;;;;;6255956;27;85047;-71
2022/01/14 08:04:36;;;;;;;22.10;13.35;;;20.80;36.50;;;;;;6255635;27;83958;-72
2022/01/14 08:07:44;;;;;;;25.88;12.05;;;21.00;36.40;;;;;;6253379;27;83088;-74
2022/01/14 08:10:45;;;;;;;19.35;11.60;;;21.10;36.50;;;;;;6252862;27;84110;-72
2022/01/14 08:13:45;;;;;;;22.45;12.23;;;21.20;36.40;;;;;;6252342;27;83395;-72
2022/01/14 08:16:46;;;;;;;20.15;11.90;;;21.30;36.70;;;;;;6258195;27;83041;-71
2022/01/14 08:19:47;;;;;;;18.40;10.90;;;21.30;36.40;;;;;;6251921;27;83201;-71
2022/01/14 08:22:48;;;;;;;20.15;11.13;;;21.40;36.80;;;;;;6257496;27;83310;-75
2022/01/14 08:25:52;;;;;;;16.63;10.68;;;21.50;36.80;;;;;;6256274;27;83466;-74
2022/01/14 08:28:53;;;;;;;17.02;10.57;;;21.50;36.90;;;;;;6253814;27;84278;-73
2022/01/14 08:31:54;;;;;;;18.05;10.55;;;21.50;37.00;;;;;;6254730;27;83362;-73
2022/01/14 08:34:54;;;;;;;15.07;8.85;;;21.60;37.10;;;;;;6254311;27;83852;-75
2022/01/14 08:37:55;;;;;;;15.15;8.93;;;21.60;37.00;;;;;;6258105;27;84198;-75
2022/01/14 08:40:55;;;;;;;15.13;10.25;;;21.60;37.20;;;;;;6257618;27;81838;-75
2022/01/14 08:43:56;;;;;;;15.30;9.23;;;21.60;37.20;;;;;;6255936;27;83409;-74
2022/01/14 08:46:56;;;;;;;16.20;9.60;;;21.70;37.40;;;;;;6257772;27;81869;-72
2022/01/14 08:49:57;;;;;;;15.00;9.23;;;21.70;37.50;;;;;;6254201;27;80944;-71
2022/01/14 08:52:59;;;;;;;14.10;8.75;;;21.70;38.00;;;;;;6256022;27;80508;-72
2022/01/14 08:55:59;;;;;;;16.08;9.95;;;21.70;37.60;;;;;;6250293;27;80843;-74
2022/01/14 08:59:00;;;;;;;15.10;9.57;;;21.70;37.70;;;;;;6259058;27;80388;-74
2022/01/14 09:02:01;;;;;;;14.52;8.85;;;21.70;38.10;;;;;;6258466;28;82708;-74
2022/01/14 09:05:02;;;;;;;13.75;8.52;;;21.70;38.20;;;;;;6252556;27;82359;-73
2022/01/14 09:08:03;;;;;;;14.30;8.90;;;21.70;37.80;;;;;;6250826;27;82486;-73
2022/01/14 09:11:03;;;;;;;14.80;9.00;;;21.70;37.90;;;;;;6251176;27;80653;-72
2022/01/14 09:14:04;;;;;;;13.95;8.18;;;21.70;38.00;;;;;;6256694;27;81237;-73
2022/01/14 09:17:04;;;;;;;12.98;8.20;;;21.70;38.10;;;;;;6251869;27;81570;-73
2022/01/14 09:20:05;;;;;;;11.35;7.88;;;21.70;38.00;;;;;;6258695;27;80449;-71
2022/01/14 09:23:12;;;;;;;15.30;7.95;;;21.70;38.10;;;;;;6260800;27;81659;-73
2022/01/14 09:26:12;;;;;;;13.60;7.85;;;21.80;38.30;;;;;;6253659;27;80559;-72
2022/01/14 09:29:13;;;;;;;13.77;8.60;;;21.80;38.00;;;;;;6250915;27;82551;-70
2022/01/14 09:32:13;;;;;;;9.90;7.13;;;21.70;38.20;;;;;;6256831;27;80883;-71
2022/01/14 09:35:14;;;;;;;11.70;7.18;;;21.80;38.50;;;;;;6257666;27;80481;-72
2022/01/14 09:38:14;;;;;;;12.02;7.75;;;21.80;38.40;;;;;;6244837;27;85587;-72
2022/01/14 09:41:15;;;;;;;11.15;7.75;;;21.80;38.60;;;;;;6250622;27;80743;-71
2022/01/14 09:44:15;;;;;;;11.18;6.78;;;21.70;38.60;;;;;;6257131;27;80102;-71
2022/01/14 09:47:16;;;;;;;12.40;7.60;;;21.70;38.50;;;;;;6253352;27;80358;-73
2022/01/14 09:50:16;;;;;;;10.90;6.30;;;21.80;38.60;;;;;;6252982;28;81747;-66
2022/01/14 09:53:17;;;;;;;9.80;6.50;;;21.80;38.30;;;;;;6249560;27;80230;-68
2022/01/14 09:56:17;;;;;;;10.73;6.85;;;21.80;38.30;;;;;;6248103;27;81236;-68
2022/01/14 09:59:18;;;;;;;12.85;7.32;;;21.70;38.10;;;;;;6256277;27;80625;-69
2022/01/14 10:02:19;;;;;;;12.13;7.32;;;21.70;38.40;;;;;;6255361;27;86184;-74
2022/01/14 10:05:19;;;;;;;14.75;6.90;;;21.70;38.70;;;;;;6248413;27;81845;-71
2022/01/14 10:08:22;;;;;;;12.70;6.85;;;21.80;39.30;;;;;;6249699;27;81905;-73
2022/01/14 10:11:23;;;;;;;15.27;7.40;;;21.70;38.90;;;;;;6259372;27;80670;-74
2022/01/14 10:14:24;;;;;;;13.00;7.07;;;21.70;38.90;;;;;;6257697;27;81885;-74
2022/01/14 10:17:24;;;;;;;13.45;7.10;;;21.70;39.00;;;;;;6258065;27;80372;-74
2022/01/14 10:20:25;;;;;;;14.30;7.72;;;21.80;38.90;;;;;;6259010;27;80375;-75
2022/01/14 10:23:25;;;;;;;11.45;7.53;;;21.80;38.80;;;;;;6248757;27;81928;-74
2022/01/14 10:26:30;;;;;;;12.93;6.75;;;21.80;39.10;;;;;;6275064;27;80587;-73
2022/01/14 10:29:30;;;;;;;14.55;7.20;;;21.70;38.90;;;;;;6245118;27;80518;-71
2022/01/14 10:32:33;;;;;;;11.30;6.82;;;21.70;38.90;;;;;;6260904;27;81897;-71
2022/01/14 10:35:34;;;;;;;12.65;7.32;;;21.70;39.10;;;;;;6267042;27;80275;-71
2022/01/14 10:38:34;;;;;;;10.68;6.55;;;21.70;39.10;;;;;;6260511;27;80815;-72
2022/01/14 10:41:36;;;;;;;13.00;7.15;;;21.80;38.80;;;;;;6260778;27;83191;-70
2022/01/14 10:44:38;;;;;;;13.48;7.60;;;21.80;38.90;;;;;;6260929;27;80539;-71
2022/01/14 10:47:39;;;;;;;11.68;6.55;;;21.80;38.80;;;;;;6253240;27;81792;-71
2022/01/14 10:50:39;;;;;;;15.77;7.30;;;21.80;38.80;;;;;;6250788;27;80650;-71
2022/01/14 10:53:40;;;;;;;10.95;6.88;;;21.80;38.80;;;;;;6260203;27;82929;-71
2022/01/14 10:56:40;;;;;;;11.02;6.57;;;21.80;38.80;;;;;;6261212;27;80486;-70
2022/01/14 10:59:41;;;;;;;12.20;7.57;;;21.80;38.80;;;;;;6260035;27;80352;-71
2022/01/14 11:02:42;;;;;;;10.57;6.65;;;21.80;38.80;;;;;;6260681;27;80620;-71
2022/01/14 11:05:42;;;;;;;12.18;7.47;;;21.70;39.10;;;;;;6258424;27;83515;-70
2022/01/14 11:08:43;;;;;;;11.73;7.07;;;21.70;38.90;;;;;;6261312;27;80442;-69
2022/01/14 11:11:44;;;;;;;15.20;7.55;;;21.70;38.70;;;;;;6259417;27;80554;-69
2022/01/14 11:14:44;;;;;;;11.68;7.68;;;21.70;38.90;;;;;;6260865;27;80173;-71
2022/01/14 11:17:49;;;;;;;10.00;6.78;;;21.70;39.10;;;;;;6259084;27;80255;-70
2022/01/14 11:24:09;;;;;;;11.70;6.93;;;21.70;39.10;;;;;;6257644;27;80483;-72
2022/01/14 11:27:09;;;;;;;11.85;7.10;;;21.80;39.30;;;;;;6260389;27;80540;-70
2022/01/14 11:30:10;;;;;;;11.75;6.80;;;21.80;39.50;;;;;;6252746;27;81374;-70
2022/01/14 11:33:10;;;;;;;10.32;6.72;;;21.80;39.40;;;;;;6255213;28;83721;-64
2022/01/14 11:36:11;;;;;;;9.32;6.28;;;21.80;39.50;;;;;;6258921;27;80215;-76
2022/01/14 11:39:11;;;;;;;11.75;6.65;;;21.80;39.70;;;;;;6257122;27;80726;-73
2022/01/14 11:42:13;;;;;;;10.73;6.80;;;21.80;39.40;;;;;;6260947;27;81981;-73
2022/01/14 11:45:15;;;;;;;11.15;7.00;;;21.80;39.50;;;;;;6257826;27;82021;-72
2022/01/14 11:48:16;;;;;;;12.00;6.20;;;21.80;40.10;;;;;;6256343;27;81625;-72
2022/01/14 11:51:16;;;;;;;10.05;6.40;;;21.80;40.00;;;;;;6256343;27;80662;-72
2022/01/14 11:54:17;;;;;;;11.60;6.85;;;21.80;39.70;;;;;;6259433;27;80518;-69
2022/01/14 11:57:17;;;;;;;10.82;6.35;;;21.80;40.00;;;;;;6254461;27;81324;-73
2022/01/14 12:00:18;;;;;;;9.35;6.38;;;21.80;40.00;;;;;;6256628;27;83526;-72
2022/01/14 12:03:21;;;;;;;11.55;6.07;;;21.80;40.30;;;;;;6260074;27;80481;-67
2022/01/14 12:06:22;;;;;;;12.52;5.63;;;21.80;40.00;;;;;;6259500;27;80664;-63
2022/01/14 12:09:22;;;;;;;14.40;6.70;;;21.70;40.40;;;;;;6256832;27;80727;-67
2022/01/14 12:12:23;;;;;;;11.25;6.25;;;21.70;40.10;;;;;;6258409;28;80373;-68
2022/01/14 12:15:25;;;;;;;14.40;6.28;;;21.80;40.30;;;;;;6247707;27;80764;-69
2022/01/14 12:18:26;;;;;;;10.73;5.82;;;21.80;40.70;;;;;;6249822;27;80884;-69
2022/01/14 12:21:26;;;;;;;9.18;5.78;;;21.70;41.10;;;;;;6258583;27;81895;-68
2022/01/14 12:24:31;;;;;;;9.15;5.05;;;21.70;40.70;;;;;;6272747;27;80398;-68
2022/01/14 12:27:34;;;;;;;18.23;6.10;;;21.70;40.70;;;;;;6258184;27;80489;-69
2022/01/14 12:30:35;;;;;;;10.45;5.22;;;21.70;40.90;;;;;;6256654;28;81950;-71
2022/01/14 12:33:35;;;;;;;10.18;6.38;;;21.80;40.60;;;;;;6259328;27;80790;-71
2022/01/14 12:36:36;;;;;;;11.00;5.65;;;21.80;40.20;;;;;;6229327;28;81993;-71
2022/01/14 12:39:37;;;;;;;12.60;5.75;;;21.80;40.30;;;;;;6258468;27;80775;-66
2022/01/14 12:42:37;;;;;;;9.30;5.28;;;21.80;40.30;;;;;;6244943;27;80656;-71
2022/01/14 12:45:38;;;;;;;7.60;5.03;;;21.80;40.20;;;;;;6259384;27;80705;-70
2022/01/14 12:48:46;;;;;;;7.47;4.55;;;21.80;40.00;;;;;;6253910;27;80440;-72
2022/01/14 12:51:46;;;;;;;9.45;5.15;;;21.90;40.00;;;;;;6265486;27;80348;-66
2022/01/14 12:54:47;;;;;;;9.30;5.30;;;21.90;39.90;;;;;;6256467;27;81254;-71
2022/01/14 12:57:47;;;;;;;9.20;5.45;;;21.90;39.80;;;;;;6253954;28;80574;-71
2022/01/14 13:00:48;;;;;;;7.63;4.55;;;21.90;39.80;;;;;;6251537;27;80556;-71
2022/01/14 13:03:48;;;;;;;9.48;5.05;;;21.90;39.90;;;;;;6252819;27;81491;-71
2022/01/14 13:06:49;;;;;;;10.70;5.30;;;21.90;40.00;;;;;;6252222;27;80697;-75
2022/01/14 13:09:50;;;;;;;12.18;5.22;;;21.90;40.00;;;;;;6253800;27;83336;-72
2022/01/14 13:12:50;;;;;;;7.40;4.70;;;21.80;40.00;;;;;;6256934;27;81013;-71
2022/01/14 13:15:55;;;;;;;9.85;5.80;;;21.90;40.10;;;;;;6255798;27;80380;-71
2022/01/14 13:18:55;;;;;;;9.35;5.07;;;21.80;40.00;;;;;;6257139;27;85506;-73
2022/01/14 13:21:58;;;;;;;8.65;4.88;;;21.90;40.20;;;;;;6256994;27;80873;-74
2022/01/14 13:25:02;;;;;;;11.48;5.55;;;21.90;40.30;;;;;;6254977;27;80629;-74
2022/01/14 13:28:02;;;;;;;11.60;6.07;;;21.90;40.40;;;;;;6257267;27;80526;-72
2022/01/14 13:31:03;;;;;;;12.77;5.75;;;21.90;40.70;;;;;;6257930;27;80542;-74
2022/01/14 13:34:04;;;;;;;10.60;6.22;;;21.90;41.10;;;;;;6251216;27;81583;-73
2022/01/14 13:37:04;;;;;;;8.30;5.32;;;22.00;40.80;;;;;;6251762;27;86617;-75
2022/01/14 13:40:05;;;;;;;9.85;6.15;;;22.00;40.90;;;;;;6258361;27;80535;-77
2022/01/14 13:43:06;;;;;;;9.32;5.47;;;22.00;40.70;;;;;;6255815;27;80397;-74
2022/01/14 13:46:07;;;;;;;8.90;5.53;;;22.00;40.70;;;;;;6248149;28;80859;-72
2022/01/14 13:49:08;;;;;;;8.40;5.65;;;22.00;40.70;;;;;;6251523;27;80737;-75
2022/01/14 13:52:11;;;;;;;8.75;5.38;;;22.00;40.60;;;;;;6256064;27;81308;-74
2022/01/14 13:55:12;;;;;;;8.18;5.30;;;22.00;40.80;;;;;;6247766;28;81054;-69
2022/01/14 13:58:16;;;;;;;10.32;6.38;;;22.00;40.70;;;;;;6250035;27;81259;-70
2022/01/14 14:01:23;;;;;;;10.73;6.40;;;22.00;40.60;;;;;;6257426;27;80467;-70
2022/01/14 14:04:25;;;;;;;10.10;5.97;;;22.00;40.40;;;;;;6260153;27;81675;-72
2022/01/14 14:07:27;;;;;;;7.70;5.60;;;22.00;40.30;;;;;;6256391;27;84050;-69
2022/01/14 14:10:47;;;;;;;9.10;5.70;;;22.00;40.30;;;;;;6257235;27;80494;-72
2022/01/14 14:17:07;;;;;;;9.50;5.63;;;22.00;40.20;;;;;;6258157;27;80473;-70
2022/01/14 14:20:08;;;;;;;14.10;6.28;;;22.00;40.20;;;;;;6259831;27;82093;-71
2022/01/14 14:23:08;;;;;;;11.50;5.72;;;22.00;40.30;;;;;;6261717;27;80757;-69
2022/01/14 14:26:14;;;;;;;8.90;5.45;;;22.00;40.40;;;;;;6262340;27;80290;-70
2022/01/14 14:29:14;;;;;;;12.80;6.55;;;22.00;40.30;;;;;;6259243;27;80979;-70
2022/01/14 14:32:15;;;;;;;9.80;6.35;;;22.00;40.30;;;;;;6258142;27;81218;-73
2022/01/14 14:35:16;;;;;;;9.25;5.72;;;22.00;40.20;;;;;;6258680;28;82086;-71
2022/01/14 14:38:19;;;;;;;9.10;5.70;;;22.00;41.00;;;;;;6260833;27;80590;-71
2022/01/14 14:41:20;;;;;;;9.40;5.38;;;22.00;40.50;;;;;;6259431;27;82355;-69
2022/01/14 14:44:20;;;;;;;11.02;6.75;;;22.00;40.60;;;;;;6259655;27;80539;-73
2022/01/14 14:47:21;;;;;;;9.82;5.97;;;21.90;40.80;;;;;;6258695;27;81405;-73
2022/01/14 14:50:21;;;;;;;10.60;6.25;;;22.00;40.50;;;;;;6260234;27;80314;-73
2022/01/14 14:53:22;;;;;;;9.35;5.88;;;22.00;40.70;;;;;;6254668;27;81902;-73
2022/01/14 14:56:22;;;;;;;8.63;5.30;;;21.90;40.40;;;;;;6261030;27;80400;-74
2022/01/14 14:59:23;;;;;;;8.90;5.95;;;21.90;40.80;;;;;;6257252;28;82436;-67
2022/01/14 15:02:24;;;;;;;11.07;5.68;;;21.90;40.60;;;;;;6258186;27;80359;-73
2022/01/14 15:05:24;;;;;;;10.85;6.63;;;21.90;40.90;;;;;;6257919;27;87840;-74
2022/01/14 15:08:25;;;;;;;11.63;6.15;;;21.90;40.80;;;;;;6263594;27;80459;-71
2022/01/14 15:11:25;;;;;;;9.45;5.63;;;21.90;41.00;;;;;;6257250;27;80768;-75
2022/01/14 15:14:27;;;;;;;10.77;6.47;;;22.00;41.20;;;;;;6250396;27;80967;-76
2022/01/14 15:20:28;;;;;;;13.65;5.53;;;22.00;41.20;;;;;;6260328;27;81196;-75
2022/01/14 15:23:29;;;;;;;9.00;6.03;;;22.10;41.50;;;;;;6260270;27;80764;-77
2022/01/14 15:26:30;;;;;;;9.82;5.35;;;22.10;41.30;;;;;;6261006;27;87312;-76
2022/01/14 15:29:31;;;;;;;12.07;5.93;;;22.00;41.60;;;;;;6250812;27;80594;-67
2022/01/14 15:32:32;;;;;;;10.75;5.57;;;22.10;41.40;;;;;;6259074;27;81646;-74
2022/01/14 15:35:34;;;;;;;9.57;5.88;;;22.10;41.30;;;;;;6260456;27;82045;-73
2022/01/14 15:38:34;;;;;;;10.23;6.13;;;22.10;41.40;;;;;;6259823;27;80780;-75
2022/01/14 15:41:35;;;;;;;12.85;5.50;;;22.10;41.30;;;;;;6258826;27;80893;-68
2022/01/14 15:44:36;;;;;;;10.43;5.72;;;22.10;41.10;;;;;;6259683;27;80310;-73
2022/01/14 15:47:36;;;;;;;10.65;5.43;;;22.20;41.30;;;;;;6257768;27;81912;-75
2022/01/14 15:50:38;;;;;;;9.88;6.38;;;22.20;41.30;;;;;;6259753;27;80454;-74
2022/01/14 15:53:38;;;;;;;11.18;4.90;;;22.20;41.30;;;;;;6256814;28;80400;-73
2022/01/14 15:56:39;;;;;;;7.93;5.30;;;22.20;41.30;;;;;;6259807;27;80300;-73
2022/01/14 15:59:39;;;;;;;11.23;6.07;;;22.20;41.20;;;;;;6257330;27;81612;-71
2022/01/14 16:02:40;;;;;;;8.15;5.50;;;22.20;41.10;;;;;;6255619;27;81214;-71